Time;durP1;ratioP1;P1;durP2;ratioP2;P2;SDS_P1;SDS_P2;PMS_P1;PMS_P2;Temp;Humidity;BMP_temperature;BMP_pressure;BME280_temperature;BME280_humidity;BME280_pressure;Samples;Min_cycle;Max_cycle;Signal;HPM_P1;HPM_P2
2022/04/18 00:01:28;;;;;;;;;;;;;;;;;;4925063;28;20239;-68
2022/04/18 00:03:55;;;;;;;;;;;;;;;;;;4922608;28;20156;-67
2022/04/18 00:06:21;;;;;;;;;;;;;;;;;;4917921;28;20970;-67
2022/04/18 00:08:47;;;;;;;;;;;;;;;;;;4920840;28;20443;-68
2022/04/18 00:11:13;;;;;;;;;;;;;;;;;;4914024;28;19918;-68
2022/04/18 00:13:39;;;;;;;;;;;;;;;;;;4919861;28;19966;-68
2022/04/18 00:16:05;;;;;;;;;;;;;;;;;;4920703;28;19948;-67
2022/04/18 00:18:31;;;;;;;;;;;;;;;;;;4924291;28;20369;-68
2022/04/18 00:20:57;;;;;;;;;;;;;;;;;;4918348;28;19914;-67
2022/04/18 00:23:23;;;;;;;;;;;;;;;;;;4917368;28;20373;-68
2022/04/18 00:25:49;;;;;;;;;;;;;;;;;;4922693;28;19925;-68
2022/04/18 00:28:15;;;;;;;;;;;;;;;;;;4940967;28;20323;-68
2022/04/18 00:30:41;;;;;;;;;;;;;;;;;;4942494;28;20718;-68
2022/04/18 00:33:09;;;;;;;;;;;;;;;;;;4922134;28;19914;-68
2022/04/18 00:35:35;;;;;;;;;;;;;;;;;;4924778;28;19924;-68
2022/04/18 00:38:01;;;;;;;;;;;;;;;;;;4947428;28;19922;-68
2022/04/18 00:40:27;;;;;;;;;;;;;;;;;;4932940;28;19913;-68
2022/04/18 00:42:53;;;;;;;;;;;;;;;;;;4948567;28;20032;-68
2022/04/18 00:45:19;;;;;;;;;;;;;;;;;;4924971;28;19993;-67
2022/04/18 00:47:45;;;;;;;;;;;;;;;;;;4950077;28;19936;-68
2022/04/18 00:50:11;;;;;;;;;;;;;;;;;;4944161;28;19921;-68
2022/04/18 00:52:37;;;;;;;;;;;;;;;;;;4950961;28;19914;-68
2022/04/18 00:55:03;;;;;;;;;;;;;;;;;;4940509;28;20223;-68
2022/04/18 00:57:29;;;;;;;;;;;;;;;;;;4946473;28;20488;-68
2022/04/18 00:59:55;;;;;;;;;;;;;;;;;;4944937;28;19920;-68
2022/04/18 01:02:21;;;;;;;;;;;;;;;;;;4943208;28;20375;-69
2022/04/18 01:04:49;;;;;;;;;;;;;;;;;;4948079;28;19914;-68
2022/04/18 01:07:15;;;;;;;;;;;;;;;;;;4941675;28;19949;-69
2022/04/18 01:09:41;;;;;;;;;;;;;;;;;;4949714;28;20330;-68
2022/04/18 01:12:07;;;;;;;;;;;;;;;;;;4948277;28;19914;-67
2022/04/18 01:14:33;;;;;;;;;;;;;;;;;;4949848;28;20407;-68
2022/04/18 01:16:59;;;;;;;;;;;;;;;;;;4944931;28;19918;-68
2022/04/18 01:19:25;;;;;;;;;;;;;;;;;;4945826;28;19921;-68
2022/04/18 01:21:51;;;;;;;;;;;;;;;;;;4951182;28;19984;-69
2022/04/18 01:29:46;;;;;;;;;;;;;;;;;;4947048;28;19920;-68
2022/04/18 01:32:12;;;;;;;;;;;;;;;;;;4930119;28;20355;-68
2022/04/18 01:34:38;;;;;;;;;;;;;;;;;;4947738;28;19914;-68
2022/04/18 01:37:04;;;;;;;;;;;;;;;;;;4942327;28;20065;-69
2022/04/18 01:39:30;;;;;;;;;;;;;;;;;;4932609;28;19914;-68
2022/04/18 01:41:56;;;;;;;;;;;;;;;;;;4948035;28;19959;-68
2022/04/18 01:44:22;;;;;;;;;;;;;;;;;;4940711;28;19968;-68
2022/04/18 01:46:48;;;;;;;;;;;;;;;;;;4949857;28;20244;-68
2022/04/18 01:49:14;;;;;;;;;;;;;;;;;;4946258;28;20246;-68
2022/04/18 01:51:40;;;;;;;;;;;;;;;;;;4950649;28;20374;-68
2022/04/18 01:54:06;;;;;;;;;;;;;;;;;;4942507;28;19977;-68
2022/04/18 01:56:32;;;;;;;;;;;;;;;;;;4949882;28;19929;-67
2022/04/18 01:58:58;;;;;;;;;;;;;;;;;;4955826;28;20683;-68
2022/04/18 02:01:24;;;;;;;;;;;;;;;;;;4948792;28;19921;-67
2022/04/18 02:03:50;;;;;;;;;;;;;;;;;;4950719;28;19914;-67
2022/04/18 02:06:16;;;;;;;;;;;;;;;;;;4941687;28;19921;-67
2022/04/18 02:08:42;;;;;;;;;;;;;;;;;;4945751;28;19921;-67
2022/04/18 02:11:08;;;;;;;;;;;;;;;;;;4945775;28;20017;-68
2022/04/18 02:13:34;;;;;;;;;;;;;;;;;;4949241;28;19944;-67
2022/04/18 02:16:00;;;;;;;;;;;;;;;;;;4942801;28;19917;-69
2022/04/18 02:18:26;;;;;;;;;;;;;;;;;;4946466;28;19914;-68
2022/04/18 02:20:52;;;;;;;;;;;;;;;;;;4949706;28;20257;-67
2022/04/18 02:23:18;;;;;;;;;;;;;;;;;;4945038;28;19933;-68
2022/04/18 02:25:44;;;;;;;;;;;;;;;;;;4947831;28;19918;-68
2022/04/18 02:28:10;;;;;;;;;;;;;;;;;;4942820;28;19928;-67
2022/04/18 02:30:36;;;;;;;;;;;;;;;;;;4948845;28;20654;-68
2022/04/18 02:33:02;;;;;;;;;;;;;;;;;;4941141;28;20068;-68
2022/04/18 02:35:28;;;;;;;;;;;;;;;;;;4945632;28;19914;-68
2022/04/18 02:37:54;;;;;;;;;;;;;;;;;;4949532;28;20140;-68
2022/04/18 02:40:20;;;;;;;;;;;;;;;;;;4943675;28;19935;-69
2022/04/18 02:42:46;;;;;;;;;;;;;;;;;;4950885;28;19914;-68
2022/04/18 02:45:12;;;;;;;;;;;;;;;;;;4942796;28;19937;-69
2022/04/18 02:47:38;;;;;;;;;;;;;;;;;;4944702;28;19914;-68
2022/04/18 02:50:04;;;;;;;;;;;;;;;;;;4938231;28;19914;-68
2022/04/18 02:52:33;;;;;;;;;;;;;;;;;;4948040;28;19950;-69
2022/04/18 02:54:59;;;;;;;;;;;;;;;;;;4944373;28;19918;-68
2022/04/18 02:57:25;;;;;;;;;;;;;;;;;;4944240;28;20306;-68
2022/04/18 02:59:51;;;;;;;;;;;;;;;;;;4944889;28;19913;-68
2022/04/18 03:02:17;;;;;;;;;;;;;;;;;;4941793;28;19918;-68
2022/04/18 03:04:43;;;;;;;;;;;;;;;;;;4947509;28;19917;-68
2022/04/18 03:07:09;;;;;;;;;;;;;;;;;;4941265;28;19918;-69
2022/04/18 03:09:35;;;;;;;;;;;;;;;;;;4949244;28;19940;-69
2022/04/18 03:12:06;;;;;;;;;;;;;;;;;;4947968;28;20220;-68
2022/04/18 03:14:32;;;;;;;;;;;;;;;;;;4944710;28;19936;-68
2022/04/18 03:16:58;;;;;;;;;;;;;;;;;;4947506;28;19925;-68
2022/04/18 03:19:24;;;;;;;;;;;;;;;;;;4943687;28;20305;-69
2022/04/18 03:21:50;;;;;;;;;;;;;;;;;;4946886;28;19946;-68
2022/04/18 03:24:16;;;;;;;;;;;;;;;;;;4942595;28;19945;-68
2022/04/18 03:26:42;;;;;;;;;;;;;;;;;;4946961;28;19926;-68
2022/04/18 03:29:08;;;;;;;;;;;;;;;;;;4948024;28;19921;-68
2022/04/18 03:31:34;;;;;;;;;;;;;;;;;;4943160;28;19914;-68
2022/04/18 03:34:00;;;;;;;;;;;;;;;;;;4947914;28;19914;-69
2022/04/18 03:41:56;;;;;;;;;;;;;;;;;;4947643;28;19920;-68
2022/04/18 03:44:22;;;;;;;;;;;;;;;;;;4941480;28;20623;-69
2022/04/18 03:46:48;;;;;;;;;;;;;;;;;;4943080;28;19972;-68
2022/04/18 03:49:14;;;;;;;;;;;;;;;;;;4942445;28;19918;-69
2022/04/18 03:51:39;;;;;;;;;;;;;;;;;;4949239;28;19949;-68
2022/04/18 03:54:05;;;;;;;;;;;;;;;;;;4941669;28;19914;-68
2022/04/18 03:56:32;;;;;;;;;;;;;;;;;;4933625;28;20025;-69
2022/04/18 03:58:58;;;;;;;;;;;;;;;;;;4948956;28;20343;-69
2022/04/18 04:01:24;;;;;;;;;;;;;;;;;;4941789;28;19914;-68
2022/04/18 04:03:50;;;;;;;;;;;;;;;;;;4956039;28;19914;-68
2022/04/18 04:06:16;;;;;;;;;;;;;;;;;;4946688;28;20222;-68
2022/04/18 04:08:42;;;;;;;;;;;;;;;;;;4946617;28;20284;-68
2022/04/18 04:11:08;;;;;;;;;;;;;;;;;;4944307;28;19914;-68
2022/04/18 04:13:34;;;;;;;;;;;;;;;;;;4946113;28;19941;-68
2022/04/18 04:16:00;;;;;;;;;;;;;;;;;;4948904;28;19918;-68
2022/04/18 04:18:26;;;;;;;;;;;;;;;;;;4943568;28;19914;-68
2022/04/18 04:20:52;;;;;;;;;;;;;;;;;;4950649;28;19914;-68
2022/04/18 04:23:18;;;;;;;;;;;;;;;;;;4945059;28;19989;-68
2022/04/18 04:25:44;;;;;;;;;;;;;;;;;;4926597;28;19918;-67
2022/04/18 04:28:11;;;;;;;;;;;;;;;;;;4940508;28;20458;-68
2022/04/18 04:30:37;;;;;;;;;;;;;;;;;;4944520;28;21221;-68
2022/04/18 04:33:03;;;;;;;;;;;;;;;;;;4941300;28;19981;-68
2022/04/18 04:35:29;;;;;;;;;;;;;;;;;;4949932;28;19921;-68
2022/04/18 04:37:55;;;;;;;;;;;;;;;;;;4946027;28;19917;-68
2022/04/18 04:40:21;;;;;;;;;;;;;;;;;;4953021;28;21802;-68
2022/04/18 04:42:47;;;;;;;;;;;;;;;;;;4951073;28;19914;-67
2022/04/18 04:45:13;;;;;;;;;;;;;;;;;;4951266;28;19918;-67
2022/04/18 04:47:39;;;;;;;;;;;;;;;;;;4949973;28;19921;-67
2022/04/18 04:50:05;;;;;;;;;;;;;;;;;;4946838;28;20016;-68
2022/04/18 04:52:31;;;;;;;;;;;;;;;;;;4949901;28;20345;-68
2022/04/18 04:54:57;;;;;;;;;;;;;;;;;;4950237;28;19941;-68
2022/04/18 04:57:23;;;;;;;;;;;;;;;;;;4941406;28;19921;-68
2022/04/18 04:59:49;;;;;;;;;;;;;;;;;;4951279;28;19939;-67
2022/04/18 05:02:15;;;;;;;;;;;;;;;;;;4946322;28;19917;-68
2022/04/18 05:04:41;;;;;;;;;;;;;;;;;;4958502;28;19921;-68
2022/04/18 05:07:08;;;;;;;;;;;;;;;;;;4949757;28;19917;-68
2022/04/18 05:09:34;;;;;;;;;;;;;;;;;;4953620;28;19918;-68
2022/04/18 05:12:00;;;;;;;;;;;;;;;;;;4951715;28;19924;-67
2022/04/18 05:14:26;;;;;;;;;;;;;;;;;;4948706;28;20938;-68
2022/04/18 05:16:52;;;;;;;;;;;;;;;;;;4943490;28;19947;-68
2022/04/18 05:19:18;;;;;;;;;;;;;;;;;;4947012;28;20062;-68
2022/04/18 05:21:44;;;;;;;;;;;;;;;;;;4957086;28;20071;-68
2022/04/18 05:24:10;;;;;;;;;;;;;;;;;;4947693;28;20677;-68
2022/04/18 05:26:37;;;;;;;;;;;;;;;;;;4951865;28;19926;-68
2022/04/18 05:29:03;;;;;;;;;;;;;;;;;;4944634;28;20659;-68
2022/04/18 05:31:28;;;;;;;;;;;;;;;;;;4935463;28;19961;-68
2022/04/18 05:33:55;;;;;;;;;;;;;;;;;;4951356;28;20104;-68
2022/04/18 05:36:21;;;;;;;;;;;;;;;;;;4951155;28;19918;-66
2022/04/18 05:38:47;;;;;;;;;;;;;;;;;;4948508;28;20407;-67
2022/04/18 05:41:13;;;;;;;;;;;;;;;;;;4948808;28;19919;-68
2022/04/18 05:43:39;;;;;;;;;;;;;;;;;;4956301;28;20195;-68
2022/04/18 05:46:05;;;;;;;;;;;;;;;;;;4951428;28;19950;-67
2022/04/18 05:48:31;;;;;;;;;;;;;;;;;;4953006;28;19920;-69
2022/04/18 05:50:57;;;;;;;;;;;;;;;;;;4951952;28;19914;-68
2022/04/18 05:53:23;;;;;;;;;;;;;;;;;;4946906;28;19948;-67
2022/04/18 05:55:49;;;;;;;;;;;;;;;;;;4944468;28;19920;-68
2022/04/18 05:58:15;;;;;;;;;;;;;;;;;;4939774;28;19919;-68
2022/04/18 06:00:41;;;;;;;;;;;;;;;;;;4941420;28;19934;-69
2022/04/18 06:03:07;;;;;;;;;;;;;;;;;;4945309;28;20566;-68
2022/04/18 06:05:33;;;;;;;;;;;;;;;;;;4946558;28;20000;-68
2022/04/18 06:08:00;;;;;;;;;;;;;;;;;;4945767;28;19944;-69
2022/04/18 06:10:26;;;;;;;;;;;;;;;;;;4929676;28;19977;-67
2022/04/18 06:12:52;;;;;;;;;;;;;;;;;;4950776;28;20830;-68
2022/04/18 06:15:18;;;;;;;;;;;;;;;;;;4940733;28;20032;-68
2022/04/18 06:17:44;;;;;;;;;;;;;;;;;;4943272;28;19917;-67
2022/04/18 06:20:10;;;;;;;;;;;;;;;;;;4941599;28;19921;-68
2022/04/18 06:22:36;;;;;;;;;;;;;;;;;;4943744;28;20419;-68
2022/04/18 06:25:02;;;;;;;;;;;;;;;;;;4943496;28;19921;-68
2022/04/18 06:27:28;;;;;;;;;;;;;;;;;;4944503;28;19977;-68
2022/04/18 06:29:54;;;;;;;;;;;;;;;;;;4951079;28;19918;-69
2022/04/18 06:32:21;;;;;;;;;;;;;;;;;;4938219;28;19918;-69
2022/04/18 06:34:47;;;;;;;;;;;;;;;;;;4941519;28;19921;-68
2022/04/18 06:37:13;;;;;;;;;;;;;;;;;;4925864;28;19918;-68
2022/04/18 06:39:39;;;;;;;;;;;;;;;;;;4925110;28;20217;-71
2022/04/18 06:42:05;;;;;;;;;;;;;;;;;;4941885;28;20462;-69
2022/04/18 06:44:31;;;;;;;;;;;;;;;;;;4945016;28;20004;-68
2022/04/18 06:46:57;;;;;;;;;;;;;;;;;;4940769;28;19918;-68
2022/04/18 06:49:23;;;;;;;;;;;;;;;;;;4944153;28;20042;-69
2022/04/18 06:51:49;;;;;;;;;;;;;;;;;;4937769;28;20276;-67
2022/04/18 06:54:15;;;;;;;;;;;;;;;;;;4940453;28;20008;-70
2022/04/18 06:57:00;;;;;;;;;;;;;;;;;;4928880;28;19918;-68
2022/04/18 06:59:28;;;;;;;;;;;;;;;;;;4937274;28;19913;-70
2022/04/18 07:01:54;;;;;;;;;;;;;;;;;;4941616;28;20331;-69
2022/04/18 07:04:20;;;;;;;;;;;;;;;;;;4921598;28;19918;-68
2022/04/18 07:06:46;;;;;;;;;;;;;;;;;;4944644;28;20015;-67
2022/04/18 07:09:12;;;;;;;;;;;;;;;;;;4936770;28;20342;-68
2022/04/18 07:11:40;;;;;;;;;;;;;;;;;;4940459;28;20167;-68
2022/04/18 07:14:06;;;;;;;;;;;;;;;;;;4932166;28;19918;-68
2022/04/18 07:16:32;;;;;;;;;;;;;;;;;;4927473;28;19968;-67
2022/04/18 07:18:58;;;;;;;;;;;;;;;;;;4883445;28;20415;-68
2022/04/18 07:21:25;;;;;;;;;;;;;;;;;;4951684;28;20013;-68
2022/04/18 07:23:51;;;;;;;;;;;;;;;;;;4960397;28;20288;-68
2022/04/18 07:26:17;;;;;;;;;;;;;;;;;;4953087;28;20349;-68
2022/04/18 07:28:43;;;;;;;;;;;;;;;;;;4956260;28;19940;-68
2022/04/18 07:31:09;;;;;;;;;;;;;;;;;;4947427;28;20112;-68
2022/04/18 07:33:35;;;;;;;;;;;;;;;;;;4952987;28;19914;-67
2022/04/18 07:36:02;;;;;;;;;;;;;;;;;;4952736;28;19913;-68
2022/04/18 07:41:14;;;;;;;;;;;;;;;;;;4950633;28;19923;-67
2022/04/18 07:43:40;;;;;;;;;;;;;;;;;;4949320;28;19921;-68
2022/04/18 07:46:05;;;;;;;;;;;;;;;;;;4945736;28;20320;-68
2022/04/18 07:48:31;;;;;;;;;;;;;;;;;;4944367;28;19921;-69
2022/04/18 07:53:42;;;;;;;;;;;;;;;;;;4945626;28;21602;-71
2022/04/18 07:56:08;;;;;;;;;;;;;;;;;;4904043;28;19937;-69
2022/04/18 07:58:34;;;;;;;;;;;;;;;;;;4902728;28;20049;-71
2022/04/18 08:01:01;;;;;;;;;;;;;;;;;;4901834;28;20269;-70
2022/04/18 08:03:27;;;;;;;;;;;;;;;;;;4885135;28;20371;-71
2022/04/18 08:05:53;;;;;;;;;;;;;;;;;;4899043;28;19924;-70
2022/04/18 08:08:19;;;;;;;;;;;;;;;;;;4899245;28;19956;-69
2022/04/18 08:10:45;;;;;;;;;;;;;;;;;;4891553;28;20328;-70
2022/04/18 08:13:11;;;;;;;;;;;;;;;;;;4898053;28;20633;-69
2022/04/18 08:15:37;;;;;;;;;;;;;;;;;;4903846;28;19914;-69
2022/04/18 08:18:03;;;;;;;;;;;;;;;;;;4876727;28;20495;-69
2022/04/18 08:20:29;;;;;;;;;;;;;;;;;;4898896;28;19925;-69
2022/04/18 08:22:55;;;;;;;;;;;;;;;;;;4896678;28;20387;-69
2022/04/18 08:25:22;;;;;;;;;;;;;;;;;;4895943;28;19918;-68
2022/04/18 08:27:48;;;;;;;;;;;;;;;;;;4899570;28;19981;-69
2022/04/18 08:30:14;;;;;;;;;;;;;;;;;;4896027;28;20482;-70
2022/04/18 08:32:40;;;;;;;;;;;;;;;;;;4940209;28;19984;-70
2022/04/18 08:35:06;;;;;;;;;;;;;;;;;;4951554;28;20393;-70
2022/04/18 08:37:33;;;;;;;;;;;;;;;;;;4950733;28;19992;-69
2022/04/18 08:39:59;;;;;;;;;;;;;;;;;;4948844;28;19914;-70
2022/04/18 08:42:25;;;;;;;;;;;;;;;;;;4949221;28;19914;-70
2022/04/18 08:44:51;;;;;;;;;;;;;;;;;;4946554;28;19921;-69
2022/04/18 08:52:46;;;;;;;;;;;;;;;;;;4946931;28;19920;-70
2022/04/18 08:55:12;;;;;;;;;;;;;;;;;;4942395;28;20016;-70
2022/04/18 08:57:39;;;;;;;;;;;;;;;;;;4944788;28;19918;-70
2022/04/18 09:00:06;;;;;;;;;;;;;;;;;;4940577;28;19921;-70
2022/04/18 09:02:32;;;;;;;;;;;;;;;;;;4931148;28;19918;-71
2022/04/18 09:04:58;;;;;;;;;;;;;;;;;;4941317;28;20455;-70
2022/04/18 09:07:24;;;;;;;;;;;;;;;;;;4940378;28;20384;-71
2022/04/18 09:09:54;;;;;;;;;;;;;;;;;;4944440;28;20029;-71
2022/04/18 09:12:20;;;;;;;;;;;;;;;;;;4937423;28;19921;-71
2022/04/18 09:14:48;;;;;;;;;;;;;;;;;;4941611;28;20013;-71
2022/04/18 09:17:14;;;;;;;;;;;;;;;;;;4939097;28;19945;-70
2022/04/18 09:19:40;;;;;;;;;;;;;;;;;;4945435;28;20427;-71
2022/04/18 09:22:07;;;;;;;;;;;;;;;;;;4944496;28;19915;-71
2022/04/18 09:24:34;;;;;;;;;;;;;;;;;;4946191;28;20025;-70
2022/04/18 09:27:00;;;;;;;;;;;;;;;;;;4945525;28;19980;-71
2022/04/18 09:29:26;;;;;;;;;;;;;;;;;;4950323;28;19921;-71
2022/04/18 09:31:52;;;;;;;;;;;;;;;;;;4950571;28;20241;-70
2022/04/18 09:34:20;;;;;;;;;;;;;;;;;;4951132;28;19921;-71
2022/04/18 09:36:46;;;;;;;;;;;;;;;;;;4948465;28;19945;-70
2022/04/18 09:39:12;;;;;;;;;;;;;;;;;;4938719;28;19914;-71
2022/04/18 09:41:38;;;;;;;;;;;;;;;;;;4945054;28;20012;-70
2022/04/18 09:44:04;;;;;;;;;;;;;;;;;;4944983;28;19918;-71
2022/04/18 09:46:30;;;;;;;;;;;;;;;;;;4947328;28;19949;-70
2022/04/18 09:48:56;;;;;;;;;;;;;;;;;;4951495;28;20008;-68
2022/04/18 09:51:22;;;;;;;;;;;;;;;;;;4941872;28;19988;-69
2022/04/18 09:53:48;;;;;;;;;;;;;;;;;;4946189;28;19957;-69
2022/04/18 09:56:14;;;;;;;;;;;;;;;;;;4946013;28;20188;-69
2022/04/18 09:58:40;;;;;;;;;;;;;;;;;;4947649;28;20372;-69
2022/04/18 10:01:06;;;;;;;;;;;;;;;;;;4942804;28;20009;-69
2022/04/18 10:03:32;;;;;;;;;;;;;;;;;;4943086;28;20280;-69
2022/04/18 10:05:58;;;;;;;;;;;;;;;;;;4940699;28;20202;-69
2022/04/18 10:08:24;;;;;;;;;;;;;;;;;;4933231;28;19992;-70
2022/04/18 10:10:50;;;;;;;;;;;;;;;;;;4937011;28;20009;-70
2022/04/18 10:13:16;;;;;;;;;;;;;;;;;;4930887;28;19920;-70
2022/04/18 10:15:42;;;;;;;;;;;;;;;;;;4935678;28;19926;-70
2022/04/18 10:18:08;;;;;;;;;;;;;;;;;;4933056;28;19922;-70
2022/04/18 10:20:35;;;;;;;;;;;;;;;;;;4937499;28;19926;-69
2022/04/18 10:23:01;;;;;;;;;;;;;;;;;;4936490;28;19921;-69
2022/04/18 10:25:27;;;;;;;;;;;;;;;;;;4934932;28;19914;-69
2022/04/18 10:27:53;;;;;;;;;;;;;;;;;;4937458;28;19948;-69
2022/04/18 10:30:19;;;;;;;;;;;;;;;;;;4933639;28;19977;-69
2022/04/18 10:32:45;;;;;;;;;;;;;;;;;;4920343;28;20720;-70
2022/04/18 10:35:11;;;;;;;;;;;;;;;;;;4929347;28;20340;-69
2022/04/18 10:37:37;;;;;;;;;;;;;;;;;;4897076;28;19913;-70
2022/04/18 10:40:03;;;;;;;;;;;;;;;;;;4943139;28;19914;-70
2022/04/18 10:42:29;;;;;;;;;;;;;;;;;;4951651;28;19976;-69
2022/04/18 10:44:55;;;;;;;;;;;;;;;;;;4948096;28;20253;-70
2022/04/18 10:47:21;;;;;;;;;;;;;;;;;;4949462;28;20607;-69
2022/04/18 10:49:47;;;;;;;;;;;;;;;;;;4933661;28;19917;-70
2022/04/18 10:52:13;;;;;;;;;;;;;;;;;;4948790;28;20119;-70
2022/04/18 10:54:39;;;;;;;;;;;;;;;;;;4952822;28;19976;-70
2022/04/18 10:57:06;;;;;;;;;;;;;;;;;;4947093;28;19921;-71
2022/04/18 10:59:32;;;;;;;;;;;;;;;;;;4951732;28;20023;-70
2022/04/18 11:01:58;;;;;;;;;;;;;;;;;;4950327;28;19948;-71
2022/04/18 11:04:24;;;;;;;;;;;;;;;;;;4948093;28;19914;-72
2022/04/18 11:06:50;;;;;;;;;;;;;;;;;;4952673;28;19924;-68
2022/04/18 11:09:16;;;;;;;;;;;;;;;;;;4950176;28;19913;-71
2022/04/18 11:11:42;;;;;;;;;;;;;;;;;;4937081;28;19914;-71
2022/04/18 11:14:08;;;;;;;;;;;;;;;;;;4892996;28;19956;-71
2022/04/18 11:16:35;;;;;;;;;;;;;;;;;;4900661;28;20439;-71
2022/04/18 11:19:01;;;;;;;;;;;;;;;;;;4897845;28;20115;-70
2022/04/18 11:21:27;;;;;;;;;;;;;;;;;;4907922;28;19921;-69
2022/04/18 11:23:53;;;;;;;;;;;;;;;;;;4900247;28;19977;-70
2022/04/18 11:26:19;;;;;;;;;;;;;;;;;;4895326;28;20427;-71
2022/04/18 11:28:45;;;;;;;;;;;;;;;;;;4899728;28;19918;-70
2022/04/18 11:31:11;;;;;;;;;;;;;;;;;;4897176;28;19914;-70
2022/04/18 11:33:37;;;;;;;;;;;;;;;;;;4901206;28;19921;-71
2022/04/18 11:36:03;;;;;;;;;;;;;;;;;;4896633;28;19914;-70
2022/04/18 11:38:29;;;;;;;;;;;;;;;;;;4886318;28;19914;-70
2022/04/18 11:40:55;;;;;;;;;;;;;;;;;;4900019;28;20008;-71
2022/04/18 11:43:21;;;;;;;;;;;;;;;;;;4899688;28;19929;-69
2022/04/18 11:45:47;;;;;;;;;;;;;;;;;;4904333;28;20033;-70
2022/04/18 11:48:13;;;;;;;;;;;;;;;;;;4898177;28;20554;-72
2022/04/18 11:50:39;;;;;;;;;;;;;;;;;;4940387;28;19914;-71
2022/04/18 11:53:05;;;;;;;;;;;;;;;;;;4948033;28;20266;-71
2022/04/18 11:55:31;;;;;;;;;;;;;;;;;;4951760;28;19917;-71
2022/04/18 11:57:57;;;;;;;;;;;;;;;;;;4934900;28;19918;-71
2022/04/18 12:08:37;;;;;;;;;;;;;;;;;;4951667;28;19921;-70
2022/04/18 12:11:03;;;;;;;;;;;;;;;;;;4949593;28;20324;-71
2022/04/18 12:13:30;;;;;;;;;;;;;;;;;;4952685;28;19918;-73
2022/04/18 12:15:56;;;;;;;;;;;;;;;;;;4932594;28;19928;-71
2022/04/18 12:18:22;;;;;;;;;;;;;;;;;;4948255;28;19929;-70
2022/04/18 12:20:48;;;;;;;;;;;;;;;;;;4952204;28;20459;-70
2022/04/18 12:23:14;;;;;;;;;;;;;;;;;;4946886;28;19920;-71
2022/04/18 12:25:40;;;;;;;;;;;;;;;;;;4951309;28;20202;-70
2022/04/18 12:28:06;;;;;;;;;;;;;;;;;;4948095;28;20243;-70
2022/04/18 12:30:32;;;;;;;;;;;;;;;;;;4950173;28;19914;-70
2022/04/18 12:32:58;;;;;;;;;;;;;;;;;;4948681;28;20289;-69
2022/04/18 12:35:24;;;;;;;;;;;;;;;;;;4947650;28;19914;-71
2022/04/18 12:37:52;;;;;;;;;;;;;;;;;;4951117;28;20412;-70
2022/04/18 12:40:18;;;;;;;;;;;;;;;;;;4947612;28;20408;-71
2022/04/18 12:42:44;;;;;;;;;;;;;;;;;;4949248;28;20337;-70
2022/04/18 12:45:10;;;;;;;;;;;;;;;;;;4947046;28;19969;-70
2022/04/18 12:47:36;;;;;;;;;;;;;;;;;;4951912;28;19918;-70
2022/04/18 12:50:02;;;;;;;;;;;;;;;;;;4948697;28;19961;-70
2022/04/18 12:52:28;;;;;;;;;;;;;;;;;;4950489;28;19914;-70
2022/04/18 12:54:54;;;;;;;;;;;;;;;;;;4931491;28;19918;-72
2022/04/18 12:57:20;;;;;;;;;;;;;;;;;;4947535;28;19918;-71
2022/04/18 12:59:47;;;;;;;;;;;;;;;;;;4951698;28;20290;-70
2022/04/18 13:02:13;;;;;;;;;;;;;;;;;;4953056;28;19921;-71
2022/04/18 13:04:39;;;;;;;;;;;;;;;;;;4956138;28;19914;-70
2022/04/18 13:07:06;;;;;;;;;;;;;;;;;;4952852;28;19929;-71
2022/04/18 13:09:32;;;;;;;;;;;;;;;;;;4952433;28;20613;-71
2022/04/18 13:11:58;;;;;;;;;;;;;;;;;;4953011;28;19961;-71
2022/04/18 13:14:24;;;;;;;;;;;;;;;;;;4952480;28;20426;-71
2022/04/18 13:16:50;;;;;;;;;;;;;;;;;;4956785;28;19918;-71
2022/04/18 13:19:16;;;;;;;;;;;;;;;;;;4932511;28;19920;-70
2022/04/18 13:21:42;;;;;;;;;;;;;;;;;;4954993;28;19925;-72
2022/04/18 13:24:08;;;;;;;;;;;;;;;;;;4949726;28;20411;-72
2022/04/18 13:26:34;;;;;;;;;;;;;;;;;;4953920;28;19945;-71
2022/04/18 13:29:00;;;;;;;;;;;;;;;;;;4955211;28;20242;-71
2022/04/18 13:31:26;;;;;;;;;;;;;;;;;;4951816;28;20365;-71
2022/04/18 13:33:52;;;;;;;;;;;;;;;;;;4955913;28;19920;-71
2022/04/18 13:36:30;;;;;;;;;;;;;;;;;;4956180;28;20447;-71
2022/04/18 13:38:56;;;;;;;;;;;;;;;;;;4959433;28;19937;-72
2022/04/18 13:41:23;;;;;;;;;;;;;;;;;;4958829;28;20715;-72
2022/04/18 13:43:49;;;;;;;;;;;;;;;;;;4958977;28;19920;-70
2022/04/18 13:46:15;;;;;;;;;;;;;;;;;;4951425;28;19918;-71
2022/04/18 13:48:47;;;;;;;;;;;;;;;;;;4955187;28;20262;-71
2022/04/18 13:51:13;;;;;;;;;;;;;;;;;;4945680;28;20008;-71
2022/04/18 13:53:39;;;;;;;;;;;;;;;;;;4952103;28;19914;-70
2022/04/18 13:56:05;;;;;;;;;;;;;;;;;;4955067;28;20289;-71
2022/04/18 13:58:31;;;;;;;;;;;;;;;;;;4957097;28;19953;-71
2022/04/18 14:00:57;;;;;;;;;;;;;;;;;;4955211;28;20439;-71
2022/04/18 14:03:25;;;;;;;;;;;;;;;;;;4957778;28;20552;-70
2022/04/18 14:05:51;;;;;;;;;;;;;;;;;;4956856;28;19964;-69
2022/04/18 14:08:17;;;;;;;;;;;;;;;;;;4953685;28;19914;-70
2022/04/18 14:10:43;;;;;;;;;;;;;;;;;;4958239;28;19914;-70
2022/04/18 14:13:09;;;;;;;;;;;;;;;;;;4947465;28;19913;-69
2022/04/18 14:21:05;;;;;;;;;;;;;;;;;;4937424;28;20087;-70
2022/04/18 14:23:31;;;;;;;;;;;;;;;;;;4953974;28;19922;-71
2022/04/18 14:25:57;;;;;;;;;;;;;;;;;;4950938;28;19917;-70
2022/04/18 14:28:22;;;;;;;;;;;;;;;;;;4942455;28;20457;-70
2022/04/18 14:30:49;;;;;;;;;;;;;;;;;;4949298;28;20388;-70
2022/04/18 14:33:15;;;;;;;;;;;;;;;;;;4948969;28;20007;-70
2022/04/18 14:35:41;;;;;;;;;;;;;;;;;;4931508;28;20347;-69
2022/04/18 14:38:07;;;;;;;;;;;;;;;;;;4939401;28;19925;-70
2022/04/18 14:40:33;;;;;;;;;;;;;;;;;;4952477;28;20071;-70
2022/04/18 14:42:59;;;;;;;;;;;;;;;;;;4954844;28;19945;-71
2022/04/18 14:45:25;;;;;;;;;;;;;;;;;;4953824;28;20014;-69
2022/04/18 14:47:51;;;;;;;;;;;;;;;;;;4957717;28;20388;-72
2022/04/18 14:50:17;;;;;;;;;;;;;;;;;;4954613;28;20302;-72
2022/04/18 14:52:43;;;;;;;;;;;;;;;;;;4958339;28;20433;-71
2022/04/18 14:55:09;;;;;;;;;;;;;;;;;;4955426;28;19914;-72
2022/04/18 14:57:35;;;;;;;;;;;;;;;;;;4958848;28;20396;-71
2022/04/18 15:00:01;;;;;;;;;;;;;;;;;;4953887;28;19920;-70
2022/04/18 15:02:27;;;;;;;;;;;;;;;;;;4956607;28;19914;-72
2022/04/18 15:04:55;;;;;;;;;;;;;;;;;;4935858;28;20455;-71
2022/04/18 15:07:21;;;;;;;;;;;;;;;;;;4950461;28;19918;-72
2022/04/18 15:09:47;;;;;;;;;;;;;;;;;;4963077;28;19920;-71
2022/04/18 15:12:13;;;;;;;;;;;;;;;;;;4958094;28;19945;-71
2022/04/18 15:14:39;;;;;;;;;;;;;;;;;;4943213;28;20034;-71
2022/04/18 15:17:05;;;;;;;;;;;;;;;;;;4955544;28;19944;-71
2022/04/18 15:19:31;;;;;;;;;;;;;;;;;;4955887;28;20504;-70
2022/04/18 15:21:57;;;;;;;;;;;;;;;;;;4951812;28;20061;-70
2022/04/18 15:24:23;;;;;;;;;;;;;;;;;;4943437;28;20269;-71
2022/04/18 15:26:49;;;;;;;;;;;;;;;;;;4941715;28;20261;-70
2022/04/18 15:29:15;;;;;;;;;;;;;;;;;;4947933;28;19918;-70
2022/04/18 15:34:28;;;;;;;;;;;;;;;;;;4946944;28;19994;-70
2022/04/18 15:36:55;;;;;;;;;;;;;;;;;;4946204;28;19922;-70
2022/04/18 15:39:21;;;;;;;;;;;;;;;;;;4944709;28;19997;-70
2022/04/18 15:41:47;;;;;;;;;;;;;;;;;;4942312;28;19924;-70
2022/04/18 15:44:13;;;;;;;;;;;;;;;;;;4942536;28;19997;-70
2022/04/18 15:46:39;;;;;;;;;;;;;;;;;;4931750;28;19940;-71
2022/04/18 15:49:05;;;;;;;;;;;;;;;;;;4940278;28;19918;-69
2022/04/18 15:51:31;;;;;;;;;;;;;;;;;;4945731;28;19920;-71
2022/04/18 15:53:57;;;;;;;;;;;;;;;;;;4941619;28;19914;-70
2022/04/18 15:56:23;;;;;;;;;;;;;;;;;;4942271;28;20486;-70
2022/04/18 15:58:49;;;;;;;;;;;;;;;;;;4942824;28;19915;-71
2022/04/18 16:01:15;;;;;;;;;;;;;;;;;;4942859;28;19914;-72
2022/04/18 16:03:42;;;;;;;;;;;;;;;;;;4950750;28;20339;-72
2022/04/18 16:06:08;;;;;;;;;;;;;;;;;;4947790;28;19918;-71
2022/04/18 16:08:34;;;;;;;;;;;;;;;;;;4943463;28;20384;-72
2022/04/18 16:11:00;;;;;;;;;;;;;;;;;;4947540;28;20378;-72
2022/04/18 16:13:26;;;;;;;;;;;;;;;;;;4938985;28;19925;-72
2022/04/18 16:15:52;;;;;;;;;;;;;;;;;;4951831;28;19913;-71
2022/04/18 16:18:18;;;;;;;;;;;;;;;;;;4935294;28;19914;-72
2022/04/18 16:20:44;;;;;;;;;;;;;;;;;;4953545;28;19920;-71
2022/04/18 16:23:10;;;;;;;;;;;;;;;;;;4951709;28;19974;-71
2022/04/18 16:25:36;;;;;;;;;;;;;;;;;;4958899;28;20404;-72
2022/04/18 16:28:02;;;;;;;;;;;;;;;;;;4944706;28;19930;-71
2022/04/18 16:33:13;;;;;;;;;;;;;;;;;;4944535;28;19994;-72
2022/04/18 16:35:39;;;;;;;;;;;;;;;;;;4948510;28;19915;-71
2022/04/18 16:38:05;;;;;;;;;;;;;;;;;;4947174;28;19925;-71
2022/04/18 16:40:31;;;;;;;;;;;;;;;;;;4948882;28;20353;-71
2022/04/18 16:45:54;;;;;;;;;;;;;;;;;;4957808;28;20443;-71
2022/04/18 16:48:20;;;;;;;;;;;;;;;;;;4952538;28;20004;-71
2022/04/18 16:50:46;;;;;;;;;;;;;;;;;;4957397;28;19918;-71
2022/04/18 16:53:12;;;;;;;;;;;;;;;;;;4952828;28;20222;-72
2022/04/18 16:55:38;;;;;;;;;;;;;;;;;;4956383;28;20441;-71
2022/04/18 16:58:04;;;;;;;;;;;;;;;;;;4951426;28;19918;-71
2022/04/18 17:00:30;;;;;;;;;;;;;;;;;;4962556;28;20012;-71
2022/04/18 17:02:56;;;;;;;;;;;;;;;;;;4963813;28;20278;-71
2022/04/18 17:05:22;;;;;;;;;;;;;;;;;;4960058;28;21536;-71
2022/04/18 17:07:48;;;;;;;;;;;;;;;;;;4963734;28;19917;-71
2022/04/18 17:10:14;;;;;;;;;;;;;;;;;;4951116;28;19985;-70
2022/04/18 17:12:40;;;;;;;;;;;;;;;;;;4955451;28;19918;-73
2022/04/18 17:15:06;;;;;;;;;;;;;;;;;;4949666;28;20075;-69
2022/04/18 17:17:32;;;;;;;;;;;;;;;;;;4953673;28;19914;-72
2022/04/18 17:19:58;;;;;;;;;;;;;;;;;;4938755;28;19920;-70
2022/04/18 17:22:24;;;;;;;;;;;;;;;;;;4908901;28;19917;-70